createdAt,value
2023-05-18T00:00:29.792Z,93177.13
2023-05-18T00:01:26.532Z,93187.38
2023-05-18T00:02:24.016Z,93185.75
2023-05-18T00:03:20.774Z,93185.56
2023-05-18T00:04:18.000Z,93182.66
2023-05-18T00:05:14.544Z,93184.50
2023-05-18T00:06:11.107Z,93183.25
2023-05-18T00:07:07.726Z,93184.78
2023-05-18T00:08:04.376Z,93181.09
2023-05-18T00:09:01.171Z,93180.50
2023-05-18T00:09:57.724Z,93191.94
2023-05-18T00:10:54.394Z,93190.13
2023-05-18T00:11:51.371Z,93187.19
2023-05-18T00:12:48.073Z,93191.97
2023-05-18T00:13:44.636Z,93186.72
2023-05-18T00:14:41.172Z,93185.59
2023-05-18T00:15:37.695Z,93181.84
2023-05-18T00:16:34.287Z,93186.88
2023-05-18T00:17:31.882Z,93184.88
2023-05-18T00:18:28.689Z,93184.69
2023-05-18T00:19:25.377Z,93190.06
2023-05-18T00:20:22.297Z,93183.75
2023-05-18T00:21:18.875Z,93185.91
2023-05-18T00:22:18.677Z,93188.84
2023-05-18T00:23:16.529Z,93192.97
2023-05-18T00:24:13.610Z,93187.66
2023-05-18T00:25:10.168Z,93187.78
2023-05-18T00:26:06.890Z,93192.34
2023-05-18T00:27:03.528Z,93196.78
2023-05-18T00:28:00.069Z,93191.44
2023-05-18T00:28:56.642Z,93194.53
2023-05-18T00:29:53.148Z,93192.97
2023-05-18T00:30:49.657Z,93195.53
2023-05-18T00:31:46.384Z,93191.31
2023-05-18T00:32:42.969Z,93193.94
2023-05-18T00:33:40.671Z,93189.72
2023-05-18T00:34:37.400Z,93192.41
2023-05-18T00:35:34.018Z,93194.38
2023-05-18T00:36:31.340Z,93200.03
2023-05-18T00:37:27.901Z,93201.47
2023-05-18T00:38:24.551Z,93202.16
2023-05-18T00:39:21.244Z,93201.50
2023-05-18T00:40:17.887Z,93203.53
2023-05-18T00:41:14.423Z,93205.28
2023-05-18T00:42:11.009Z,93204.66
2023-05-18T00:43:07.645Z,93202.94
2023-05-18T00:44:05.188Z,93205.56
2023-05-18T00:45:01.887Z,93200.09
2023-05-18T00:45:58.495Z,93207.78
2023-05-18T00:46:55.112Z,93208.34
2023-05-18T00:47:51.974Z,93201.47
2023-05-18T00:48:49.219Z,93204.47
2023-05-18T00:49:45.807Z,93202.72
2023-05-18T00:50:42.344Z,93202.44
2023-05-18T00:51:39.220Z,93206.66
2023-05-18T00:52:36.346Z,93208.69
2023-05-18T00:53:33.109Z,93210.56
2023-05-18T00:54:29.852Z,93204.13
2023-05-18T00:55:28.636Z,93201.56
2023-05-18T00:56:26.336Z,93198.53
2023-05-18T00:57:22.952Z,93199.75
2023-05-18T00:58:19.702Z,93199.25
2023-05-18T00:59:16.564Z,93126.94
2023-05-18T01:00:14.158Z,93190.50
2023-05-18T01:01:10.944Z,93193.31
2023-05-18T01:02:09.822Z,93192.50
2023-05-18T01:03:10.413Z,93194.06
2023-05-18T01:04:07.830Z,93188.75
2023-05-18T01:05:04.882Z,93182.34
2023-05-18T01:06:01.467Z,93190.41
2023-05-18T01:06:58.568Z,93189.97
2023-05-18T01:07:56.696Z,93188.03
2023-05-18T01:08:53.960Z,93193.38
2023-05-18T01:09:50.513Z,93189.22
2023-05-18T01:10:52.741Z,93199.91
2023-05-18T01:12:12.125Z,93186.81
2023-05-18T01:13:20.665Z,93196.00
2023-05-18T01:14:17.331Z,93191.66
2023-05-18T01:15:16.399Z,93191.56
2023-05-18T01:16:17.141Z,93187.38
2023-05-18T01:17:49.853Z,93191.84
2023-05-18T01:18:54.901Z,93188.16
2023-05-18T01:19:51.552Z,93190.25
2023-05-18T01:21:13.601Z,93183.16
2023-05-18T01:22:16.694Z,93193.53
2023-05-18T01:23:22.332Z,93194.25
2023-05-18T01:24:25.863Z,93197.13
2023-05-18T01:25:25.288Z,93192.50
2023-05-18T01:26:29.912Z,93195.53
2023-05-18T01:27:27.188Z,93193.56
2023-05-18T01:28:28.148Z,93195.56
2023-05-18T01:29:26.010Z,93194.44
2023-05-18T01:30:22.681Z,93115.28
2023-05-18T01:31:19.444Z,93200.78
2023-05-18T01:32:20.553Z,93192.94
2023-05-18T01:33:17.108Z,93190.50
2023-05-18T01:34:13.990Z,93195.88
2023-05-18T01:35:10.652Z,93196.28
2023-05-18T01:36:07.449Z,93195.09
2023-05-18T01:37:04.036Z,93193.59
2023-05-18T01:38:00.766Z,93194.34
2023-05-18T01:39:01.549Z,93193.81
2023-05-18T01:39:58.236Z,93189.25
2023-05-18T01:41:33.506Z,93193.47
2023-05-18T01:42:30.808Z,93189.59
2023-05-18T01:43:33.363Z,93195.69
2023-05-18T01:44:46.019Z,93195.47
2023-05-18T01:45:46.428Z,93193.81
2023-05-18T01:46:55.144Z,93198.97
2023-05-18T01:47:56.866Z,93205.19
2023-05-18T01:48:56.489Z,93196.44
2023-05-18T01:50:09.494Z,93194.66
2023-05-18T01:51:06.728Z,93194.44
2023-05-18T01:52:11.310Z,93198.59
2023-05-18T01:53:20.074Z,93199.72
2023-05-18T01:54:18.122Z,93195.53
2023-05-18T01:55:15.553Z,93198.06
2023-05-18T01:56:13.948Z,93202.41
2023-05-18T01:57:11.455Z,93200.84
2023-05-18T01:58:09.177Z,93200.16
2023-05-18T01:59:05.921Z,93196.06
2023-05-18T02:00:05.893Z,93197.13
2023-05-18T02:01:03.030Z,93199.63
2023-05-18T02:02:00.728Z,93193.88
2023-05-18T02:02:57.834Z,93192.63
2023-05-18T02:03:54.590Z,93198.97
2023-05-18T02:04:51.356Z,93198.75
2023-05-18T02:05:47.853Z,93200.63
2023-05-18T02:06:44.640Z,93208.16
2023-05-18T02:07:44.105Z,93200.25
2023-05-18T02:08:40.858Z,93200.38
2023-05-18T02:09:37.501Z,93198.44
2023-05-18T02:10:34.079Z,93197.19
2023-05-18T02:11:31.104Z,93203.00
2023-05-18T02:12:27.745Z,93201.03
2023-05-18T02:13:24.218Z,93200.72
2023-05-18T02:14:20.730Z,93204.31
2023-05-18T02:15:17.360Z,93201.22
2023-05-18T02:16:13.966Z,93196.25
2023-05-18T02:17:11.691Z,93195.47
2023-05-18T02:18:08.552Z,93202.72
2023-05-18T02:19:05.276Z,93200.72
2023-05-18T02:20:02.197Z,93195.41
2023-05-18T02:21:01.657Z,93203.06
2023-05-18T02:21:58.279Z,93199.56
2023-05-18T02:22:54.870Z,93203.78
2023-05-18T02:23:51.596Z,93196.91
2023-05-18T02:24:48.258Z,93201.50
2023-05-18T02:25:44.842Z,93203.69
2023-05-18T02:26:41.763Z,93195.81
2023-05-18T02:27:38.400Z,93201.09
2023-05-18T02:28:34.917Z,93210.44
2023-05-18T02:29:31.460Z,93213.34
2023-05-18T02:30:29.333Z,93209.88
2023-05-18T02:31:29.639Z,93207.50
2023-05-18T02:32:26.290Z,93210.53
2023-05-18T02:33:26.589Z,93212.84
2023-05-18T02:34:24.863Z,93211.50
2023-05-18T02:35:21.609Z,93214.72
2023-05-18T02:36:18.675Z,93215.72
2023-05-18T02:37:15.820Z,93216.44
2023-05-18T02:38:12.559Z,93217.44
2023-05-18T02:39:09.597Z,93212.75
2023-05-18T02:40:12.941Z,93211.94
2023-05-18T02:41:10.080Z,93210.03
2023-05-18T02:42:06.857Z,93210.38
2023-05-18T02:43:03.454Z,93212.38
2023-05-18T02:44:00.040Z,93208.16
2023-05-18T02:44:56.657Z,93214.03
2023-05-18T02:45:53.208Z,93219.44
2023-05-18T02:46:49.794Z,93217.56
2023-05-18T02:47:46.736Z,93216.44
2023-05-18T02:48:45.797Z,93220.22
2023-05-18T02:49:42.446Z,93223.03
2023-05-18T02:50:39.514Z,93216.19
2023-05-18T02:51:36.224Z,93225.78
2023-05-18T02:52:34.106Z,93219.94
2023-05-18T02:53:30.825Z,93221.41
2023-05-18T02:54:27.405Z,93229.81
2023-05-18T02:55:24.038Z,93231.72
2023-05-18T02:56:20.594Z,93235.91
2023-05-18T02:57:17.250Z,93234.03
2023-05-18T02:58:14.240Z,93233.38
2023-05-18T02:59:11.609Z,93233.31
2023-05-18T03:00:11.908Z,93236.69
2023-05-18T03:01:08.552Z,93241.91
2023-05-18T03:02:05.384Z,93250.50
2023-05-18T03:03:03.037Z,93249.66
2023-05-18T03:03:59.761Z,93242.22
2023-05-18T03:04:57.619Z,93251.63
2023-05-18T03:05:54.156Z,93248.66
2023-05-18T03:06:52.996Z,93252.56
2023-05-18T03:07:51.109Z,93252.53
2023-05-18T03:08:49.120Z,93249.44
2023-05-18T03:09:45.727Z,93252.56
2023-05-18T03:10:42.377Z,93252.22
2023-05-18T03:11:39.002Z,93249.88
2023-05-18T03:12:35.631Z,93249.63
2023-05-18T03:13:32.201Z,93256.25
2023-05-18T03:14:28.712Z,93249.31
2023-05-18T03:15:25.301Z,93253.00
2023-05-18T03:16:21.904Z,93255.78
2023-05-18T03:17:18.484Z,93254.94
2023-05-18T03:18:15.032Z,93253.53
2023-05-18T03:19:14.362Z,93254.19
2023-05-18T03:20:11.548Z,93255.22
2023-05-18T03:21:08.377Z,93261.91
2023-05-18T03:22:06.046Z,93274.63
2023-05-18T03:23:02.669Z,93267.53
2023-05-18T03:24:03.195Z,93269.19
2023-05-18T03:25:02.420Z,93266.03
2023-05-18T03:25:58.974Z,93278.66
2023-05-18T03:26:57.115Z,93272.69
2023-05-18T03:27:53.765Z,93271.91
2023-05-18T03:28:50.339Z,93281.44
2023-05-18T03:29:46.949Z,93277.88
2023-05-18T03:30:43.486Z,93271.84
2023-05-18T03:31:40.764Z,93277.59
2023-05-18T03:32:37.437Z,93272.94
2023-05-18T03:33:33.987Z,93272.72
2023-05-18T03:34:30.572Z,93274.56
2023-05-18T03:35:27.578Z,93280.94
2023-05-18T03:36:26.316Z,93272.66
2023-05-18T03:37:22.865Z,93282.16
2023-05-18T03:38:19.614Z,93280.38
2023-05-18T03:39:16.276Z,93278.06
2023-05-18T03:40:13.975Z,93279.22
2023-05-18T03:41:10.816Z,93273.41
2023-05-18T03:42:07.455Z,93278.00
2023-05-18T03:43:04.029Z,93280.81
2023-05-18T03:44:00.681Z,93275.66
2023-05-18T03:44:57.336Z,93280.25
2023-05-18T03:45:54.023Z,93281.13
2023-05-18T03:46:50.668Z,93284.56
2023-05-18T03:47:47.711Z,93281.47
2023-05-18T03:48:44.261Z,93281.19
2023-05-18T03:49:40.939Z,93278.94
2023-05-18T03:50:37.545Z,93278.94
2023-05-18T03:51:34.088Z,93281.22
2023-05-18T03:52:30.841Z,93284.44
2023-05-18T03:53:27.459Z,93281.34
2023-05-18T03:54:24.729Z,93285.31
2023-05-18T03:55:21.673Z,93286.16
2023-05-18T03:56:18.301Z,93287.47
2023-05-18T03:57:14.943Z,93290.25
2023-05-18T03:58:11.459Z,93289.41
2023-05-18T03:59:08.207Z,93285.56
2023-05-18T04:00:08.779Z,93289.75
2023-05-18T04:01:05.440Z,93288.16
2023-05-18T04:02:02.063Z,93288.50
2023-05-18T04:02:58.836Z,93292.72
2023-05-18T04:03:56.640Z,93286.66
2023-05-18T04:04:54.185Z,93291.66
2023-05-18T04:05:52.001Z,93289.38
2023-05-18T04:06:49.412Z,93291.56
2023-05-18T04:07:46.774Z,93293.72
2023-05-18T04:08:43.386Z,93295.91
2023-05-18T04:09:39.955Z,93295.91
2023-05-18T04:10:36.501Z,93293.72
2023-05-18T04:11:33.190Z,93300.91
2023-05-18T04:12:29.754Z,93301.06
2023-05-18T04:13:26.398Z,93294.50
2023-05-18T04:14:24.783Z,93297.97
2023-05-18T04:15:21.351Z,93301.03
2023-05-18T04:16:18.425Z,93308.09
2023-05-18T04:17:22.237Z,93308.13
2023-05-18T04:18:19.033Z,93309.25
2023-05-18T04:19:15.979Z,93309.25
2023-05-18T04:20:14.726Z,93310.81
2023-05-18T04:21:11.941Z,93299.38
2023-05-18T04:22:08.863Z,93309.16
2023-05-18T04:23:05.391Z,93308.34
2023-05-18T04:24:05.706Z,93308.00
2023-05-18T04:25:03.301Z,93308.88
2023-05-18T04:26:00.090Z,93311.25
2023-05-18T04:26:59.525Z,93305.44
2023-05-18T04:27:56.867Z,93315.44
2023-05-18T04:29:00.191Z,93309.06
2023-05-18T04:29:56.833Z,93318.66
2023-05-18T04:30:53.477Z,93314.50
2023-05-18T04:31:50.200Z,93314.78
2023-05-18T04:32:47.226Z,93306.88
2023-05-18T04:33:46.668Z,93315.22
2023-05-18T04:34:43.227Z,93312.44
2023-05-18T04:35:39.790Z,93315.53
2023-05-18T04:36:39.847Z,93311.31
2023-05-18T04:37:40.417Z,93152.53
2023-05-18T04:38:37.084Z,93319.06
2023-05-18T04:39:34.749Z,93317.41
2023-05-18T04:40:33.963Z,93314.69
2023-05-18T04:41:34.192Z,93316.19
2023-05-18T04:42:31.047Z,93310.75
2023-05-18T04:43:28.360Z,93313.94
2023-05-18T04:44:25.997Z,93312.91
2023-05-18T04:45:22.915Z,93315.06
2023-05-18T04:46:19.855Z,93312.69
2023-05-18T04:47:16.367Z,93315.06
2023-05-18T04:48:14.645Z,93318.09
2023-05-18T04:49:11.774Z,93313.47
2023-05-18T04:50:08.545Z,93322.31
2023-05-18T04:51:06.232Z,93311.97
2023-05-18T04:52:02.799Z,93322.88
2023-05-18T04:53:02.342Z,93328.69
2023-05-18T04:53:58.874Z,93325.59
2023-05-18T04:54:55.455Z,93329.00
2023-05-18T04:55:53.363Z,93323.25
2023-05-18T04:56:50.601Z,93324.84
2023-05-18T04:57:47.724Z,93325.97
2023-05-18T04:58:46.086Z,93322.47
2023-05-18T04:59:46.401Z,93337.78
2023-05-18T05:00:43.207Z,93327.88
2023-05-18T05:01:39.812Z,93332.16
2023-05-18T05:02:36.438Z,93331.03
2023-05-18T05:03:33.277Z,93336.41
2023-05-18T05:04:29.978Z,93333.06
2023-05-18T05:05:27.223Z,93336.84
2023-05-18T05:06:23.999Z,93330.47
2023-05-18T05:07:22.620Z,93339.28
2023-05-18T05:08:19.218Z,93341.13
2023-05-18T05:09:15.746Z,93341.13
2023-05-18T05:10:12.350Z,93340.19
2023-05-18T05:11:08.875Z,93341.31
2023-05-18T05:12:05.638Z,93348.91
2023-05-18T05:13:02.188Z,93349.69
2023-05-18T05:13:58.843Z,93355.31
2023-05-18T05:14:55.458Z,93355.09
2023-05-18T05:15:52.096Z,93354.25
2023-05-18T05:16:48.655Z,93350.88
2023-05-18T05:17:46.835Z,93356.06
2023-05-18T05:18:45.207Z,93357.13
2023-05-18T05:19:43.137Z,93356.91
2023-05-18T05:20:39.664Z,93366.41
2023-05-18T05:21:36.456Z,93362.97
2023-05-18T05:22:33.133Z,93359.56
2023-05-18T05:23:29.696Z,93354.06
2023-05-18T05:24:26.319Z,93358.16
2023-05-18T05:25:22.876Z,93360.00
2023-05-18T05:26:19.837Z,93352.00
2023-05-18T05:27:16.421Z,93360.28
2023-05-18T05:28:13.145Z,93355.72
2023-05-18T05:29:09.679Z,93355.13
2023-05-18T05:30:06.823Z,93257.75
2023-05-18T05:31:03.535Z,93353.06
2023-05-18T05:32:00.132Z,93359.00
2023-05-18T05:32:56.812Z,93363.13
2023-05-18T05:33:53.369Z,93357.63
2023-05-18T05:34:51.837Z,93361.00
2023-05-18T05:35:48.440Z,93355.00
2023-05-18T05:36:45.060Z,93364.44
2023-05-18T05:37:41.938Z,93355.66
2023-05-18T05:38:38.551Z,93359.28
2023-05-18T05:39:35.071Z,93355.09
2023-05-18T05:40:31.760Z,93354.78
2023-05-18T05:41:28.359Z,93359.94
2023-05-18T05:42:25.681Z,93363.53
2023-05-18T05:43:22.252Z,93369.31
2023-05-18T05:44:19.334Z,93360.91
2023-05-18T05:45:16.106Z,93364.59
2023-05-18T05:46:12.620Z,93367.28
2023-05-18T05:47:09.938Z,93370.03
2023-05-18T05:48:06.685Z,93360.91
2023-05-18T05:49:04.136Z,93367.19
2023-05-18T05:50:00.773Z,93360.47
2023-05-18T05:50:57.333Z,93359.81
2023-05-18T05:51:53.882Z,93359.16
2023-05-18T05:52:50.580Z,93354.38
2023-05-18T05:53:47.690Z,93362.47
2023-05-18T05:54:44.499Z,93368.09
2023-05-18T05:55:43.793Z,93362.47
2023-05-18T05:56:40.490Z,93355.63
2023-05-18T05:57:37.107Z,93364.47
2023-05-18T05:58:33.648Z,93354.50
2023-05-18T05:59:30.193Z,93361.94
2023-05-18T06:00:28.886Z,93368.81
2023-05-18T06:01:25.818Z,93371.13
2023-05-18T06:02:22.433Z,93363.72
2023-05-18T06:03:19.229Z,93365.94
2023-05-18T06:04:16.106Z,93368.59
2023-05-18T06:05:12.829Z,93376.34
2023-05-18T06:06:09.381Z,93366.88
2023-05-18T06:07:06.387Z,93399.84
2023-05-18T06:08:02.937Z,93369.38
2023-05-18T06:08:59.458Z,93364.84
2023-05-18T06:09:56.034Z,93377.88
2023-05-18T06:10:52.729Z,93368.97
2023-05-18T06:11:49.282Z,93379.00
2023-05-18T06:12:45.825Z,93371.75
2023-05-18T06:13:42.336Z,93374.72
2023-05-18T06:14:38.903Z,93374.78
2023-05-18T06:15:35.561Z,93374.03
2023-05-18T06:16:32.202Z,93369.63
2023-05-18T06:17:28.928Z,93374.16
2023-05-18T06:18:25.585Z,93374.97
2023-05-18T06:19:22.212Z,93377.72
2023-05-18T06:20:18.797Z,93367.19
2023-05-18T06:21:16.136Z,93373.09
2023-05-18T06:22:12.690Z,93378.91
2023-05-18T06:23:09.237Z,93378.16
2023-05-18T06:24:06.176Z,93384.31
2023-05-18T06:25:02.790Z,93381.94
2023-05-18T06:25:59.441Z,93382.88
2023-05-18T06:26:56.053Z,93377.53
2023-05-18T06:27:52.616Z,93382.16
2023-05-18T06:28:49.498Z,93382.44
2023-05-18T06:29:46.163Z,93390.91
2023-05-18T06:30:42.822Z,93386.09
2023-05-18T06:31:39.461Z,93394.81
2023-05-18T06:32:37.500Z,93387.56
2023-05-18T06:33:34.592Z,93388.22
2023-05-18T06:34:31.210Z,93395.03
2023-05-18T06:35:27.905Z,93399.47
2023-05-18T06:36:24.639Z,93391.94
2023-05-18T06:37:21.500Z,93393.72
2023-05-18T06:38:18.261Z,93396.53
2023-05-18T06:39:14.910Z,93396.28
2023-05-18T06:40:11.965Z,93395.06
2023-05-18T06:41:08.728Z,93400.41
2023-05-18T06:42:05.364Z,93403.09
2023-05-18T06:43:01.913Z,93402.25
2023-05-18T06:44:00.490Z,93408.25
2023-05-18T06:44:57.076Z,93407.06
2023-05-18T06:45:54.879Z,93403.44
2023-05-18T06:46:51.485Z,93403.94
2023-05-18T06:47:48.732Z,93411.59
2023-05-18T06:48:45.903Z,93412.72
2023-05-18T06:49:42.622Z,93420.78
2023-05-18T06:50:39.187Z,93418.41
2023-05-18T06:51:35.701Z,93406.81
2023-05-18T06:52:32.676Z,93420.28
2023-05-18T06:53:31.792Z,93429.75
2023-05-18T06:54:29.956Z,93451.13
2023-05-18T06:55:27.208Z,93420.75
2023-05-18T06:56:23.825Z,93428.47
2023-05-18T06:57:20.739Z,93430.63
2023-05-18T06:58:17.243Z,93435.47
2023-05-18T06:59:14.846Z,93452.72
2023-05-18T07:00:13.008Z,93438.75
2023-05-18T07:01:09.818Z,93455.16
2023-05-18T07:02:06.858Z,93443.16
2023-05-18T07:03:03.791Z,93439.44
2023-05-18T07:04:00.459Z,93433.56
2023-05-18T07:04:57.076Z,93438.91
2023-05-18T07:05:53.644Z,93446.91
2023-05-18T07:06:50.255Z,93444.31
2023-05-18T07:07:47.645Z,93449.53
2023-05-18T07:08:44.721Z,93449.81
2023-05-18T07:09:45.698Z,93453.22
2023-05-18T07:10:42.319Z,93452.38
2023-05-18T07:11:40.486Z,93454.50
2023-05-18T07:12:37.082Z,93454.13
2023-05-18T07:13:33.707Z,93452.66
2023-05-18T07:14:30.275Z,93460.22
2023-05-18T07:15:27.075Z,93443.66
2023-05-18T07:16:23.646Z,93451.75
2023-05-18T07:17:20.262Z,93445.25
2023-05-18T07:18:16.846Z,93443.88
2023-05-18T07:19:14.094Z,93440.88
2023-05-18T07:20:10.803Z,93447.50
2023-05-18T07:21:07.401Z,93452.34
2023-05-18T07:22:04.780Z,93449.63
2023-05-18T07:23:01.473Z,93452.75
2023-05-18T07:23:58.155Z,93454.09
2023-05-18T07:24:54.810Z,93457.22
2023-05-18T07:25:51.744Z,93458.31
2023-05-18T07:26:48.367Z,93457.72
2023-05-18T07:27:44.878Z,93457.88
2023-05-18T07:28:41.471Z,93459.44
2023-05-18T07:29:38.051Z,93452.50
2023-05-18T07:30:34.667Z,93460.69
2023-05-18T07:31:32.698Z,93475.13
2023-05-18T07:32:29.389Z,93464.47
2023-05-18T07:33:26.400Z,93458.75
2023-05-18T07:34:23.612Z,93380.53
2023-05-18T07:35:21.681Z,93470.72
2023-05-18T07:36:18.332Z,93462.22
2023-05-18T07:37:14.937Z,93463.25
2023-05-18T07:38:11.516Z,93464.28
2023-05-18T07:39:08.907Z,93463.00
2023-05-18T07:40:05.966Z,93452.16
2023-05-18T07:41:02.545Z,93474.81
2023-05-18T07:41:59.304Z,93473.28
2023-05-18T07:42:56.197Z,93474.22
2023-05-18T07:43:52.812Z,93477.09
2023-05-18T07:44:49.332Z,93483.97
2023-05-18T07:45:45.896Z,93475.06
2023-05-18T07:46:43.411Z,93474.13
2023-05-18T07:47:40.307Z,93477.69
2023-05-18T07:48:38.480Z,93484.41
2023-05-18T07:49:39.093Z,93480.16
2023-05-18T07:50:35.818Z,93477.31
2023-05-18T07:51:32.658Z,93480.88
2023-05-18T07:52:29.209Z,93476.66
2023-05-18T07:53:25.924Z,93491.66
2023-05-18T07:54:22.461Z,93491.31
2023-05-18T07:55:18.975Z,93490.38
2023-05-18T07:56:15.497Z,93490.81
2023-05-18T07:57:12.110Z,93485.97
2023-05-18T07:58:09.607Z,93493.09
2023-05-18T07:59:06.551Z,93492.41
2023-05-18T08:00:05.043Z,93490.25
2023-05-18T08:01:01.894Z,93489.88
2023-05-18T08:02:00.068Z,93506.00
2023-05-18T08:02:56.895Z,93502.63
2023-05-18T08:03:54.580Z,93500.84
2023-05-18T08:04:52.060Z,93494.66
2023-05-18T08:05:48.576Z,93491.81
2023-05-18T08:06:45.062Z,93488.16
2023-05-18T08:07:42.637Z,93507.19
2023-05-18T08:08:39.259Z,93498.59
2023-05-18T08:09:35.874Z,93503.78
2023-05-18T08:10:32.502Z,93496.38
2023-05-18T08:11:29.045Z,93497.81
2023-05-18T08:12:25.586Z,93499.00
2023-05-18T08:13:22.218Z,93507.59
2023-05-18T08:14:18.874Z,93505.25
2023-05-18T08:15:15.636Z,93498.41
2023-05-18T08:16:12.609Z,93507.00
2023-05-18T08:17:09.412Z,93504.38
2023-05-18T08:18:06.302Z,93509.31
2023-05-18T08:19:03.562Z,93493.84
2023-05-18T08:20:00.198Z,93505.00
2023-05-18T08:20:56.810Z,93510.09
2023-05-18T08:21:53.395Z,93504.47
2023-05-18T08:22:49.989Z,93517.66
2023-05-18T08:23:46.720Z,93514.78
2023-05-18T08:24:43.401Z,93514.13
2023-05-18T08:25:39.887Z,93511.84
2023-05-18T08:26:36.445Z,93520.78
2023-05-18T08:27:32.951Z,93520.50
2023-05-18T08:28:29.881Z,93516.34
2023-05-18T08:29:26.477Z,93518.31
2023-05-18T08:30:23.145Z,93530.59
2023-05-18T08:31:19.727Z,93522.69
2023-05-18T08:32:16.523Z,93518.84
2023-05-18T08:33:13.257Z,93528.34
2023-05-18T08:34:09.952Z,93528.31
2023-05-18T08:35:08.483Z,93530.78
2023-05-18T08:36:05.287Z,93532.22
2023-05-18T08:37:01.891Z,93528.97
2023-05-18T08:37:58.527Z,93531.63
2023-05-18T08:38:55.231Z,93537.38
2023-05-18T08:39:52.496Z,93536.06
2023-05-18T08:40:58.032Z,93537.50
2023-05-18T08:42:07.960Z,93537.91
2023-05-18T08:43:08.591Z,93554.78
2023-05-18T08:44:11.965Z,93542.41
2023-05-18T08:45:13.325Z,93540.75
2023-05-18T08:46:25.824Z,93542.03
2023-05-18T08:47:26.141Z,93548.66
2023-05-18T08:48:26.442Z,93544.44
2023-05-18T08:49:26.994Z,93538.41
2023-05-18T08:50:24.724Z,93539.75
2023-05-18T08:51:21.843Z,93537.72
2023-05-18T08:52:19.496Z,93537.00
2023-05-18T08:53:16.857Z,93542.75
2023-05-18T08:54:19.679Z,93543.56
2023-05-18T08:55:17.930Z,93541.81
2023-05-18T08:56:14.854Z,93546.91
2023-05-18T08:57:11.391Z,93544.53
2023-05-18T08:58:09.340Z,93549.50
2023-05-18T08:59:08.425Z,93542.53
2023-05-18T09:00:08.007Z,93557.03
2023-05-18T09:01:04.770Z,93550.06
2023-05-18T09:02:01.454Z,93552.56
2023-05-18T09:02:58.187Z,93551.84
2023-05-18T09:03:55.837Z,93547.16
2023-05-18T09:04:54.129Z,93546.84
2023-05-18T09:05:52.164Z,93546.31
2023-05-18T09:06:48.881Z,93583.44
2023-05-18T09:07:46.231Z,93579.16
2023-05-18T09:08:43.389Z,93573.75
2023-05-18T09:09:40.874Z,93559.75
2023-05-18T09:10:38.466Z,93559.25
2023-05-18T09:11:35.910Z,93561.38
2023-05-18T09:12:33.248Z,93557.75
2023-05-18T09:13:29.797Z,93551.53
2023-05-18T09:14:26.919Z,93559.03
2023-05-18T09:15:25.407Z,93562.97
2023-05-18T09:16:22.171Z,93567.59
2023-05-18T09:17:19.021Z,93566.88
2023-05-18T09:18:15.728Z,93557.03
2023-05-18T09:19:12.498Z,93568.63
2023-05-18T09:20:09.372Z,93571.00
2023-05-18T09:21:06.293Z,93558.09
2023-05-18T09:22:03.318Z,93573.91
2023-05-18T09:23:00.220Z,93568.63
2023-05-18T09:23:56.824Z,93568.25
2023-05-18T09:24:53.451Z,93566.47
2023-05-18T09:25:50.206Z,93568.00
2023-05-18T09:26:46.941Z,93568.25
2023-05-18T09:27:43.906Z,93567.38
2023-05-18T09:28:41.910Z,93576.28
2023-05-18T09:29:51.277Z,93571.03
2023-05-18T09:30:48.236Z,93574.47
2023-05-18T09:31:45.918Z,93582.25
2023-05-18T09:32:42.631Z,93582.84
2023-05-18T09:33:40.113Z,93577.13
2023-05-18T09:34:41.025Z,93574.69
2023-05-18T09:35:37.731Z,93570.94
2023-05-18T09:36:34.718Z,93575.44
2023-05-18T09:37:31.445Z,93576.78
2023-05-18T09:38:28.163Z,93576.59
2023-05-18T09:39:24.728Z,93582.03
2023-05-18T09:40:27.918Z,93580.69
2023-05-18T09:41:26.205Z,93582.59
2023-05-18T09:42:24.240Z,93579.28
2023-05-18T09:43:21.029Z,93582.34
2023-05-18T09:44:17.902Z,93581.41
2023-05-18T09:45:19.462Z,93586.09
2023-05-18T09:46:16.186Z,93583.59
2023-05-18T09:47:12.752Z,93587.69
2023-05-18T09:48:09.686Z,93576.53
2023-05-18T09:49:07.067Z,93586.97
2023-05-18T09:50:03.668Z,93592.13
2023-05-18T09:51:00.214Z,93587.50
2023-05-18T09:52:02.486Z,93593.50
2023-05-18T09:53:00.173Z,93590.41
2023-05-18T09:53:57.668Z,93587.81
2023-05-18T09:55:01.021Z,93589.88
2023-05-18T09:56:02.044Z,93588.94
2023-05-18T09:57:10.282Z,93592.13
2023-05-18T09:58:08.243Z,93592.44
2023-05-18T09:59:08.500Z,93593.88
2023-05-18T10:00:10.436Z,93594.81
2023-05-18T10:01:07.206Z,93603.28
2023-05-18T10:02:12.194Z,93599.47
2023-05-18T10:03:38.284Z,93596.63
2023-05-18T10:04:35.402Z,93601.22
2023-05-18T10:05:36.031Z,93610.63
2023-05-18T10:06:33.091Z,93611.38
2023-05-18T10:07:29.750Z,93597.28
2023-05-18T10:08:26.343Z,93605.28
2023-05-18T10:09:22.863Z,93618.94
2023-05-18T10:10:20.790Z,93610.34
2023-05-18T10:11:19.642Z,93605.47
2023-05-18T10:12:17.893Z,93608.69
2023-05-18T10:13:17.895Z,93617.13
2023-05-18T10:14:14.402Z,93604.41
2023-05-18T10:15:14.421Z,93610.94
2023-05-18T10:16:11.019Z,93607.00
2023-05-18T10:18:10.808Z,93610.53
2023-05-18T10:19:09.038Z,93512.38
2023-05-18T10:20:09.213Z,93626.50
2023-05-18T10:21:07.296Z,93613.88
2023-05-18T10:22:06.139Z,93614.03
2023-05-18T10:23:05.313Z,93608.28
2023-05-18T10:24:03.770Z,93609.75
2023-05-18T10:25:01.423Z,93618.38
2023-05-18T10:25:58.471Z,93605.69
2023-05-18T10:26:57.672Z,93605.94
2023-05-18T10:28:00.420Z,93610.03
2023-05-18T10:28:59.085Z,93609.81
2023-05-18T10:29:59.303Z,93610.97
2023-05-18T10:30:57.164Z,93620.94
2023-05-18T10:31:55.791Z,93617.53
2023-05-18T10:32:52.652Z,93619.81
2023-05-18T10:33:50.452Z,93626.25
2023-05-18T10:34:47.732Z,93619.25
2023-05-18T10:35:45.489Z,93624.88
2023-05-18T10:36:42.889Z,93630.59
2023-05-18T10:37:41.232Z,93626.38
2023-05-18T10:38:42.504Z,93626.72
2023-05-18T10:39:40.434Z,93624.47
2023-05-18T10:40:37.290Z,93623.88
2023-05-18T10:41:34.458Z,93629.81
2023-05-18T10:42:31.637Z,93629.09
2023-05-18T10:43:28.633Z,93629.56
2023-05-18T10:44:25.455Z,93631.59
2023-05-18T10:45:22.745Z,93630.06
2023-05-18T10:46:21.532Z,93636.03
2023-05-18T10:47:19.488Z,93643.31
2023-05-18T10:48:16.803Z,93624.81
2023-05-18T10:49:17.487Z,93640.06
2023-05-18T10:50:14.840Z,93637.56
2023-05-18T10:51:12.916Z,93643.41
2023-05-18T10:52:10.867Z,93645.31
2023-05-18T10:53:10.116Z,93643.53
2023-05-18T10:54:12.864Z,93649.81
2023-05-18T10:55:09.486Z,93650.34
2023-05-18T10:56:07.864Z,93653.53
2023-05-18T10:57:04.701Z,93660.25
2023-05-18T10:58:07.491Z,93656.28
2023-05-18T10:59:05.246Z,93659.66
2023-05-18T11:00:05.515Z,93659.50
2023-05-18T11:01:03.281Z,93664.91
2023-05-18T11:02:01.431Z,93658.81
2023-05-18T11:02:58.430Z,93663.88
2023-05-18T11:03:55.082Z,93665.19
2023-05-18T11:04:54.285Z,93668.47
2023-05-18T11:05:52.368Z,93676.78
2023-05-18T11:06:57.472Z,93668.59
2023-05-18T11:08:05.105Z,93670.19
2023-05-18T11:09:02.067Z,93674.38
2023-05-18T11:10:01.009Z,93677.25
2023-05-18T11:11:02.834Z,93669.66
2023-05-18T11:12:00.315Z,93673.97
2023-05-18T11:12:59.381Z,93667.22
2023-05-18T11:14:00.596Z,93676.38
2023-05-18T11:14:58.121Z,93676.44
2023-05-18T11:15:55.106Z,93675.28
2023-05-18T11:16:52.233Z,93677.84
2023-05-18T11:18:08.731Z,93677.84
2023-05-18T11:19:07.003Z,93673.03
2023-05-18T11:20:06.574Z,93678.06
2023-05-18T11:21:03.393Z,93684.28